sensor_id;sensor_type;location;lat;lon;timestamp;P1;durP1;ratioP1;P2;durP2;ratioP2
53642;SDS011;39546;45.534;12.048;2023-05-07T00:05:46;7.37;;;5.50;;
53642;SDS011;39546;45.534;12.048;2023-05-07T00:11:52;6.62;;;4.22;;
53642;SDS011;39546;45.534;12.048;2023-05-07T00:17:55;6.87;;;4.43;;
53642;SDS011;39546;45.534;12.048;2023-05-07T00:23:58;6.12;;;4.18;;
53642;SDS011;39546;45.534;12.048;2023-05-07T00:30:04;7.45;;;4.93;;
53642;SDS011;39546;45.534;12.048;2023-05-07T00:36:08;6.00;;;4.10;;
53642;SDS011;39546;45.534;12.048;2023-05-07T00:42:10;5.35;;;3.67;;
53642;SDS011;39546;45.534;12.048;2023-05-07T00:48:12;7.65;;;5.62;;
53642;SDS011;39546;45.534;12.048;2023-05-07T00:54:15;5.65;;;4.35;;
53642;SDS011;39546;45.534;12.048;2023-05-07T01:00:18;7.85;;;5.70;;
53642;SDS011;39546;45.534;12.048;2023-05-07T01:06:21;5.87;;;4.25;;
53642;SDS011;39546;45.534;12.048;2023-05-07T01:12:24;8.05;;;6.28;;
53642;SDS011;39546;45.534;12.048;2023-05-07T01:18:27;6.72;;;5.03;;
53642;SDS011;39546;45.534;12.048;2023-05-07T01:24:35;9.30;;;6.05;;
53642;SDS011;39546;45.534;12.048;2023-05-07T01:30:39;8.82;;;6.68;;
53642;SDS011;39546;45.534;12.048;2023-05-07T01:36:47;7.53;;;5.33;;
53642;SDS011;39546;45.534;12.048;2023-05-07T01:42:54;8.55;;;5.65;;
53642;SDS011;39546;45.534;12.048;2023-05-07T01:48:57;8.25;;;5.87;;
53642;SDS011;39546;45.534;12.048;2023-05-07T01:54:59;11.98;;;6.60;;
53642;SDS011;39546;45.534;12.048;2023-05-07T02:01:01;10.82;;;7.93;;
53642;SDS011;39546;45.534;12.048;2023-05-07T02:07:03;8.18;;;6.12;;
53642;SDS011;39546;45.534;12.048;2023-05-07T02:13:05;6.35;;;4.18;;
53642;SDS011;39546;45.534;12.048;2023-05-07T02:19:08;8.63;;;6.32;;
53642;SDS011;39546;45.534;12.048;2023-05-07T02:25:10;11.48;;;9.13;;
53642;SDS011;39546;45.534;12.048;2023-05-07T02:31:13;11.27;;;9.15;;
53642;SDS011;39546;45.534;12.048;2023-05-07T02:37:15;11.73;;;8.25;;
53642;SDS011;39546;45.534;12.048;2023-05-07T02:43:18;10.70;;;6.68;;
53642;SDS011;39546;45.534;12.048;2023-05-07T02:49:20;8.88;;;6.75;;
53642;SDS011;39546;45.534;12.048;2023-05-07T02:55:23;10.85;;;7.70;;
53642;SDS011;39546;45.534;12.048;2023-05-07T03:01:25;7.97;;;5.65;;
53642;SDS011;39546;45.534;12.048;2023-05-07T03:07:28;6.97;;;5.65;;
53642;SDS011;39546;45.534;12.048;2023-05-07T03:13:30;9.63;;;6.65;;
53642;SDS011;39546;45.534;12.048;2023-05-07T03:19:32;5.85;;;4.53;;
53642;SDS011;39546;45.534;12.048;2023-05-07T03:25:34;8.15;;;5.93;;
53642;SDS011;39546;45.534;12.048;2023-05-07T03:31:37;7.53;;;4.85;;
53642;SDS011;39546;45.534;12.048;2023-05-07T03:37:39;7.97;;;5.62;;
53642;SDS011;39546;45.534;12.048;2023-05-07T03:43:42;12.10;;;8.82;;
53642;SDS011;39546;45.534;12.048;2023-05-07T03:49:45;7.68;;;6.32;;
53642;SDS011;39546;45.534;12.048;2023-05-07T03:55:48;9.88;;;7.72;;
53642;SDS011;39546;45.534;12.048;2023-05-07T04:01:51;10.18;;;8.13;;
53642;SDS011;39546;45.534;12.048;2023-05-07T04:07:54;10.45;;;8.63;;
53642;SDS011;39546;45.534;12.048;2023-05-07T04:13:57;12.13;;;9.27;;
53642;SDS011;39546;45.534;12.048;2023-05-07T04:19:59;8.77;;;6.75;;
53642;SDS011;39546;45.534;12.048;2023-05-07T04:26:01;7.15;;;4.65;;
53642;SDS011;39546;45.534;12.048;2023-05-07T04:32:05;8.55;;;6.97;;
53642;SDS011;39546;45.534;12.048;2023-05-07T04:38:07;11.60;;;6.97;;
53642;SDS011;39546;45.534;12.048;2023-05-07T04:44:10;9.00;;;6.53;;
53642;SDS011;39546;45.534;12.048;2023-05-07T04:50:17;8.48;;;6.53;;
53642;SDS011;39546;45.534;12.048;2023-05-07T04:56:21;9.75;;;7.68;;
53642;SDS011;39546;45.534;12.048;2023-05-07T05:02:23;9.27;;;6.35;;
53642;SDS011;39546;45.534;12.048;2023-05-07T05:08:26;9.27;;;6.97;;
53642;SDS011;39546;45.534;12.048;2023-05-07T05:14:29;8.93;;;6.68;;
53642;SDS011;39546;45.534;12.048;2023-05-07T05:20:31;8.32;;;5.78;;
53642;SDS011;39546;45.534;12.048;2023-05-07T05:26:34;5.68;;;3.83;;
53642;SDS011;39546;45.534;12.048;2023-05-07T05:32:36;7.28;;;5.32;;
53642;SDS011;39546;45.534;12.048;2023-05-07T05:38:39;5.43;;;4.10;;
53642;SDS011;39546;45.534;12.048;2023-05-07T05:44:42;5.95;;;4.07;;
53642;SDS011;39546;45.534;12.048;2023-05-07T05:50:44;8.73;;;6.10;;
53642;SDS011;39546;45.534;12.048;2023-05-07T05:56:47;9.82;;;5.62;;
53642;SDS011;39546;45.534;12.048;2023-05-07T06:02:56;7.00;;;5.30;;
53642;SDS011;39546;45.534;12.048;2023-05-07T06:08:59;13.35;;;5.80;;
53642;SDS011;39546;45.534;12.048;2023-05-07T06:15:10;6.72;;;4.97;;
53642;SDS011;39546;45.534;12.048;2023-05-07T06:21:13;8.90;;;5.53;;
53642;SDS011;39546;45.534;12.048;2023-05-07T06:27:17;8.00;;;6.80;;
53642;SDS011;39546;45.534;12.048;2023-05-07T06:33:41;9.30;;;6.57;;
53642;SDS011;39546;45.534;12.048;2023-05-07T06:39:44;11.12;;;7.72;;
53642;SDS011;39546;45.534;12.048;2023-05-07T06:45:47;12.85;;;11.00;;
53642;SDS011;39546;45.534;12.048;2023-05-07T06:51:49;14.85;;;12.55;;
53642;SDS011;39546;45.534;12.048;2023-05-07T06:57:51;12.32;;;9.95;;
53642;SDS011;39546;45.534;12.048;2023-05-07T07:03:54;11.48;;;7.55;;
53642;SDS011;39546;45.534;12.048;2023-05-07T07:09:57;10.63;;;8.60;;
53642;SDS011;39546;45.534;12.048;2023-05-07T07:15:59;11.43;;;8.05;;
53642;SDS011;39546;45.534;12.048;2023-05-07T07:22:03;8.73;;;6.30;;
53642;SDS011;39546;45.534;12.048;2023-05-07T07:28:05;9.25;;;7.10;;
53642;SDS011;39546;45.534;12.048;2023-05-07T07:34:08;8.90;;;6.85;;
53642;SDS011;39546;45.534;12.048;2023-05-07T07:40:10;9.02;;;6.70;;
53642;SDS011;39546;45.534;12.048;2023-05-07T07:46:13;13.52;;;11.52;;
53642;SDS011;39546;45.534;12.048;2023-05-07T07:52:18;10.30;;;7.53;;
53642;SDS011;39546;45.534;12.048;2023-05-07T07:58:20;8.50;;;6.03;;
53642;SDS011;39546;45.534;12.048;2023-05-07T08:04:23;8.07;;;6.37;;
53642;SDS011;39546;45.534;12.048;2023-05-07T08:10:26;9.15;;;4.95;;
53642;SDS011;39546;45.534;12.048;2023-05-07T08:16:31;14.23;;;10.65;;
53642;SDS011;39546;45.534;12.048;2023-05-07T08:22:36;8.05;;;6.22;;
53642;SDS011;39546;45.534;12.048;2023-05-07T08:28:39;8.27;;;5.40;;
53642;SDS011;39546;45.534;12.048;2023-05-07T08:34:43;9.38;;;7.50;;
53642;SDS011;39546;45.534;12.048;2023-05-07T08:40:46;9.35;;;7.20;;
53642;SDS011;39546;45.534;12.048;2023-05-07T08:46:49;10.52;;;6.03;;
53642;SDS011;39546;45.534;12.048;2023-05-07T08:53:00;7.45;;;5.03;;
53642;SDS011;39546;45.534;12.048;2023-05-07T08:59:06;7.47;;;4.97;;
53642;SDS011;39546;45.534;12.048;2023-05-07T09:05:08;5.55;;;3.67;;
53642;SDS011;39546;45.534;12.048;2023-05-07T09:11:11;4.78;;;3.40;;
53642;SDS011;39546;45.534;12.048;2023-05-07T09:17:17;7.40;;;3.92;;
53642;SDS011;39546;45.534;12.048;2023-05-07T09:23:20;4.82;;;3.55;;
53642;SDS011;39546;45.534;12.048;2023-05-07T09:29:24;8.70;;;3.37;;
53642;SDS011;39546;45.534;12.048;2023-05-07T09:35:27;4.55;;;2.92;;
53642;SDS011;39546;45.534;12.048;2023-05-07T09:41:30;6.95;;;4.50;;
53642;SDS011;39546;45.534;12.048;2023-05-07T09:47:36;6.80;;;4.25;;
53642;SDS011;39546;45.534;12.048;2023-05-07T09:53:46;5.57;;;4.03;;
53642;SDS011;39546;45.534;12.048;2023-05-07T09:59:52;6.75;;;4.28;;
53642;SDS011;39546;45.534;12.048;2023-05-07T10:06:10;4.27;;;2.57;;
53642;SDS011;39546;45.534;12.048;2023-05-07T10:12:15;15.30;;;9.30;;
53642;SDS011;39546;45.534;12.048;2023-05-07T10:18:19;8.98;;;5.70;;
53642;SDS011;39546;45.534;12.048;2023-05-07T10:24:33;11.90;;;9.57;;
53642;SDS011;39546;45.534;12.048;2023-05-07T10:37:22;9.00;;;5.70;;
53642;SDS011;39546;45.534;12.048;2023-05-07T10:43:42;11.05;;;8.05;;
53642;SDS011;39546;45.534;12.048;2023-05-07T10:55:50;7.40;;;5.35;;
53642;SDS011;39546;45.534;12.048;2023-05-07T11:02:18;9.88;;;8.73;;
53642;SDS011;39546;45.534;12.048;2023-05-07T11:08:20;7.72;;;5.65;;
53642;SDS011;39546;45.534;12.048;2023-05-07T11:20:49;8.40;;;6.95;;
53642;SDS011;39546;45.534;12.048;2023-05-07T11:26:58;7.80;;;5.10;;
53642;SDS011;39546;45.534;12.048;2023-05-07T11:33:02;7.22;;;4.82;;
53642;SDS011;39546;45.534;12.048;2023-05-07T11:39:05;10.90;;;7.15;;
53642;SDS011;39546;45.534;12.048;2023-05-07T11:45:24;7.90;;;6.45;;
53642;SDS011;39546;45.534;12.048;2023-05-07T11:51:26;8.90;;;7.07;;
53642;SDS011;39546;45.534;12.048;2023-05-07T11:57:32;7.12;;;4.78;;
53642;SDS011;39546;45.534;12.048;2023-05-07T12:03:36;6.10;;;4.65;;
53642;SDS011;39546;45.534;12.048;2023-05-07T12:09:45;6.82;;;3.58;;
53642;SDS011;39546;45.534;12.048;2023-05-07T12:15:52;6.60;;;4.57;;
53642;SDS011;39546;45.534;12.048;2023-05-07T12:21:56;6.68;;;4.72;;
53642;SDS011;39546;45.534;12.048;2023-05-07T12:28:00;6.37;;;4.65;;
53642;SDS011;39546;45.534;12.048;2023-05-07T12:34:02;7.87;;;5.18;;
53642;SDS011;39546;45.534;12.048;2023-05-07T12:40:07;7.72;;;4.57;;
53642;SDS011;39546;45.534;12.048;2023-05-07T12:46:10;6.55;;;4.47;;
53642;SDS011;39546;45.534;12.048;2023-05-07T12:52:15;7.72;;;4.22;;
53642;SDS011;39546;45.534;12.048;2023-05-07T12:58:20;5.72;;;3.97;;
53642;SDS011;39546;45.534;12.048;2023-05-07T13:04:28;7.82;;;4.75;;
53642;SDS011;39546;45.534;12.048;2023-05-07T13:10:46;8.18;;;4.37;;
53642;SDS011;39546;45.534;12.048;2023-05-07T13:16:48;6.03;;;3.70;;
53642;SDS011;39546;45.534;12.048;2023-05-07T13:22:52;8.18;;;4.62;;
53642;SDS011;39546;45.534;12.048;2023-05-07T13:28:54;5.53;;;4.60;;
53642;SDS011;39546;45.534;12.048;2023-05-07T13:35:41;4.30;;;3.17;;
53642;SDS011;39546;45.534;12.048;2023-05-07T13:41:43;7.15;;;4.15;;
53642;SDS011;39546;45.534;12.048;2023-05-07T13:47:45;5.12;;;3.20;;
53642;SDS011;39546;45.534;12.048;2023-05-07T13:53:48;5.95;;;3.05;;
53642;SDS011;39546;45.534;12.048;2023-05-07T13:59:50;6.07;;;3.72;;
53642;SDS011;39546;45.534;12.048;2023-05-07T14:05:52;8.55;;;3.15;;
53642;SDS011;39546;45.534;12.048;2023-05-07T14:12:04;4.75;;;3.33;;
53642;SDS011;39546;45.534;12.048;2023-05-07T14:18:06;7.32;;;3.90;;
53642;SDS011;39546;45.534;12.048;2023-05-07T14:24:31;4.50;;;3.35;;
53642;SDS011;39546;45.534;12.048;2023-05-07T14:30:33;4.47;;;3.08;;
53642;SDS011;39546;45.534;12.048;2023-05-07T14:36:36;3.40;;;1.75;;
53642;SDS011;39546;45.534;12.048;2023-05-07T14:42:39;4.12;;;2.85;;
53642;SDS011;39546;45.534;12.048;2023-05-07T14:48:41;5.35;;;2.97;;
53642;SDS011;39546;45.534;12.048;2023-05-07T14:54:44;5.72;;;2.35;;
53642;SDS011;39546;45.534;12.048;2023-05-07T15:01:03;4.80;;;2.78;;
53642;SDS011;39546;45.534;12.048;2023-05-07T15:07:05;4.10;;;2.55;;
53642;SDS011;39546;45.534;12.048;2023-05-07T15:13:08;3.78;;;2.42;;
53642;SDS011;39546;45.534;12.048;2023-05-07T15:19:11;2.97;;;1.55;;
53642;SDS011;39546;45.534;12.048;2023-05-07T15:25:18;2.25;;;1.60;;
53642;SDS011;39546;45.534;12.048;2023-05-07T15:31:22;2.75;;;1.80;;
53642;SDS011;39546;45.534;12.048;2023-05-07T15:37:25;11.68;;;3.60;;
53642;SDS011;39546;45.534;12.048;2023-05-07T15:43:27;5.93;;;3.47;;
53642;SDS011;39546;45.534;12.048;2023-05-07T15:49:31;2.73;;;1.97;;
53642;SDS011;39546;45.534;12.048;2023-05-07T15:55:36;6.85;;;3.50;;
53642;SDS011;39546;45.534;12.048;2023-05-07T16:01:39;3.37;;;2.20;;
53642;SDS011;39546;45.534;12.048;2023-05-07T16:07:47;2.75;;;1.35;;
53642;SDS011;39546;45.534;12.048;2023-05-07T16:13:49;7.95;;;2.30;;
53642;SDS011;39546;45.534;12.048;2023-05-07T16:19:57;2.20;;;1.08;;
53642;SDS011;39546;45.534;12.048;2023-05-07T16:26:25;2.40;;;1.50;;
53642;SDS011;39546;45.534;12.048;2023-05-07T16:32:31;1.90;;;1.52;;
53642;SDS011;39546;45.534;12.048;2023-05-07T16:51:28;4.05;;;2.30;;
53642;SDS011;39546;45.534;12.048;2023-05-07T16:57:41;2.80;;;1.62;;
53642;SDS011;39546;45.534;12.048;2023-05-07T17:03:46;6.15;;;2.22;;
53642;SDS011;39546;45.534;12.048;2023-05-07T17:09:53;4.75;;;2.08;;
53642;SDS011;39546;45.534;12.048;2023-05-07T17:16:34;2.83;;;1.83;;
53642;SDS011;39546;45.534;12.048;2023-05-07T17:22:45;2.15;;;1.67;;
53642;SDS011;39546;45.534;12.048;2023-05-07T17:28:58;2.35;;;1.55;;
53642;SDS011;39546;45.534;12.048;2023-05-07T17:35:30;2.67;;;1.65;;
53642;SDS011;39546;45.534;12.048;2023-05-07T17:41:57;3.30;;;1.77;;
53642;SDS011;39546;45.534;12.048;2023-05-07T17:48:10;3.20;;;1.80;;
53642;SDS011;39546;45.534;12.048;2023-05-07T17:54:12;1.95;;;1.30;;
53642;SDS011;39546;45.534;12.048;2023-05-07T18:00:14;2.78;;;1.55;;
53642;SDS011;39546;45.534;12.048;2023-05-07T18:06:20;2.20;;;1.55;;
53642;SDS011;39546;45.534;12.048;2023-05-07T18:12:23;2.45;;;1.60;;
53642;SDS011;39546;45.534;12.048;2023-05-07T18:18:25;3.03;;;2.10;;
53642;SDS011;39546;45.534;12.048;2023-05-07T18:24:31;4.12;;;1.70;;
53642;SDS011;39546;45.534;12.048;2023-05-07T18:30:36;2.95;;;2.12;;
53642;SDS011;39546;45.534;12.048;2023-05-07T18:36:41;4.20;;;2.35;;
53642;SDS011;39546;45.534;12.048;2023-05-07T18:42:44;5.68;;;3.20;;
53642;SDS011;39546;45.534;12.048;2023-05-07T18:48:46;4.68;;;3.40;;
53642;SDS011;39546;45.534;12.048;2023-05-07T18:54:53;4.93;;;3.35;;
53642;SDS011;39546;45.534;12.048;2023-05-07T19:00:57;5.78;;;3.47;;
53642;SDS011;39546;45.534;12.048;2023-05-07T19:07:03;6.47;;;3.80;;
53642;SDS011;39546;45.534;12.048;2023-05-07T19:13:06;4.03;;;3.03;;
53642;SDS011;39546;45.534;12.048;2023-05-07T19:19:08;3.05;;;2.17;;
53642;SDS011;39546;45.534;12.048;2023-05-07T19:25:12;6.87;;;3.55;;
53642;SDS011;39546;45.534;12.048;2023-05-07T19:32:05;4.45;;;3.47;;
53642;SDS011;39546;45.534;12.048;2023-05-07T19:38:07;4.10;;;2.87;;
53642;SDS011;39546;45.534;12.048;2023-05-07T19:44:14;4.55;;;2.35;;
53642;SDS011;39546;45.534;12.048;2023-05-07T19:50:16;5.22;;;3.53;;
53642;SDS011;39546;45.534;12.048;2023-05-07T19:56:18;4.40;;;2.75;;
53642;SDS011;39546;45.534;12.048;2023-05-07T20:02:24;4.50;;;2.40;;
53642;SDS011;39546;45.534;12.048;2023-05-07T20:08:28;4.62;;;2.65;;
53642;SDS011;39546;45.534;12.048;2023-05-07T20:14:32;6.75;;;3.28;;
53642;SDS011;39546;45.534;12.048;2023-05-07T20:20:35;5.28;;;3.15;;
53642;SDS011;39546;45.534;12.048;2023-05-07T20:26:37;3.30;;;2.47;;
53642;SDS011;39546;45.534;12.048;2023-05-07T20:32:39;4.97;;;3.12;;
53642;SDS011;39546;45.534;12.048;2023-05-07T20:38:43;6.00;;;3.25;;
53642;SDS011;39546;45.534;12.048;2023-05-07T20:44:55;6.43;;;3.72;;
53642;SDS011;39546;45.534;12.048;2023-05-07T20:50:58;5.55;;;3.12;;
53642;SDS011;39546;45.534;12.048;2023-05-07T20:57:01;5.10;;;3.35;;
53642;SDS011;39546;45.534;12.048;2023-05-07T21:03:03;5.87;;;3.03;;
53642;SDS011;39546;45.534;12.048;2023-05-07T21:09:06;4.97;;;3.00;;
53642;SDS011;39546;45.534;12.048;2023-05-07T21:15:12;4.28;;;2.92;;
53642;SDS011;39546;45.534;12.048;2023-05-07T21:27:39;3.58;;;2.53;;
53642;SDS011;39546;45.534;12.048;2023-05-07T21:33:42;8.20;;;3.62;;
53642;SDS011;39546;45.534;12.048;2023-05-07T21:39:47;5.22;;;3.50;;
53642;SDS011;39546;45.534;12.048;2023-05-07T21:45:54;6.03;;;3.83;;
53642;SDS011;39546;45.534;12.048;2023-05-07T21:52:20;6.05;;;2.72;;
53642;SDS011;39546;45.534;12.048;2023-05-07T21:58:26;5.35;;;3.55;;
53642;SDS011;39546;45.534;12.048;2023-05-07T22:04:28;5.10;;;3.72;;
53642;SDS011;39546;45.534;12.048;2023-05-07T22:10:31;5.82;;;4.30;;
53642;SDS011;39546;45.534;12.048;2023-05-07T22:16:33;7.53;;;4.18;;
53642;SDS011;39546;45.534;12.048;2023-05-07T22:22:48;5.32;;;3.67;;
53642;SDS011;39546;45.534;12.048;2023-05-07T22:28:52;6.40;;;4.87;;
53642;SDS011;39546;45.534;12.048;2023-05-07T22:34:54;7.12;;;4.57;;
53642;SDS011;39546;45.534;12.048;2023-05-07T22:40:57;8.00;;;4.78;;
53642;SDS011;39546;45.534;12.048;2023-05-07T22:46:59;7.12;;;5.05;;
53642;SDS011;39546;45.534;12.048;2023-05-07T22:53:01;6.50;;;4.32;;
53642;SDS011;39546;45.534;12.048;2023-05-07T22:59:03;7.93;;;5.75;;
53642;SDS011;39546;45.534;12.048;2023-05-07T23:05:05;6.70;;;5.03;;
53642;SDS011;39546;45.534;12.048;2023-05-07T23:11:07;11.52;;;7.20;;
53642;SDS011;39546;45.534;12.048;2023-05-07T23:17:09;7.15;;;5.37;;
53642;SDS011;39546;45.534;12.048;2023-05-07T23:23:11;11.10;;;6.78;;
53642;SDS011;39546;45.534;12.048;2023-05-07T23:29:13;10.80;;;5.93;;
53642;SDS011;39546;45.534;12.048;2023-05-07T23:35:15;12.02;;;6.40;;
53642;SDS011;39546;45.534;12.048;2023-05-07T23:41:17;7.22;;;5.53;;
53642;SDS011;39546;45.534;12.048;2023-05-07T23:47:19;8.93;;;6.55;;
53642;SDS011;39546;45.534;12.048;2023-05-07T23:53:21;9.80;;;7.10;;
53642;SDS011;39546;45.534;12.048;2023-05-07T23:59:23;11.27;;;7.62;;
